Time;durP1;ratioP1;P1;durP2;ratioP2;P2;SDS_P1;SDS_P2;PMS_P1;PMS_P2;Temp;Humidity;BMP_temperature;BMP_pressure;BME280_temperature;BME280_humidity;BME280_pressure;Samples;Min_cycle;Max_cycle;Signal;HPM_P1;HPM_P2
2021/07/04 00:01:24;;;;;;;9.73;7.25;;;;;;;19.17;75.00;100952.06;5048782;28;20033;-71
2021/07/04 00:03:50;;;;;;;10.55;7.90;;;;;;;19.16;75.10;100945.19;5056895;28;20102;-71
2021/07/04 00:06:15;;;;;;;10.18;7.20;;;;;;;19.14;75.26;100944.59;5051162;28;20028;-71
2021/07/04 00:08:41;;;;;;;16.98;7.97;;;;;;;19.12;75.31;100944.00;5038644;28;20029;-71
2021/07/04 00:11:09;;;;;;;10.85;7.35;;;;;;;19.07;75.68;100943.81;5042620;28;20114;-71
2021/07/04 00:13:36;;;;;;;8.85;6.88;;;;;;;19.04;75.78;100931.91;5035069;28;20085;-71
2021/07/04 00:16:03;;;;;;;14.48;8.68;;;;;;;19.08;75.21;100926.22;5050140;28;20017;-71
2021/07/04 00:18:31;;;;;;;18.98;9.20;;;;;;;19.03;75.29;100919.78;5036645;28;20025;-71
2021/07/04 00:20:57;;;;;;;10.60;8.30;;;;;;;18.86;75.95;100921.28;5052287;28;20035;-71
2021/07/04 00:23:25;;;;;;;11.27;7.35;;;;;;;18.80;76.33;100915.03;5030257;28;20481;-71
2021/07/04 00:25:52;;;;;;;13.77;8.10;;;;;;;18.81;76.21;100918.44;5047864;28;20112;-71
2021/07/04 00:28:18;;;;;;;9.05;6.40;;;;;;;18.83;76.26;100922.47;5026896;28;20411;-71
2021/07/04 00:30:44;;;;;;;10.55;7.32;;;;;;;18.80;76.43;100922.91;5051894;28;20024;-71
2021/07/04 00:33:09;;;;;;;13.02;7.55;;;;;;;18.77;76.77;100922.47;5042533;28;20040;-71
2021/07/04 00:35:36;;;;;;;11.40;7.53;;;;;;;18.74;76.75;100923.72;5037203;28;20032;-72
2021/07/04 00:38:06;;;;;;;11.98;8.20;;;;;;;18.70;77.05;100921.69;5029341;28;20432;-71
2021/07/04 00:40:33;;;;;;;11.77;7.22;;;;;;;18.70;77.01;100916.44;5052018;28;20132;-72
2021/07/04 00:42:59;;;;;;;18.95;8.05;;;;;;;18.73;76.30;100922.09;5036804;28;20458;-71
2021/07/04 00:45:26;;;;;;;10.88;7.43;;;;;;;18.76;76.22;100910.34;5043771;28;20043;-71
2021/07/04 00:47:53;;;;;;;11.93;8.48;;;;;;;18.77;76.09;100923.28;5045387;28;20032;-72
2021/07/04 00:50:25;;;;;;;14.85;8.73;;;;;;;18.74;76.58;100925.50;5043532;28;20484;-71
2021/07/04 00:52:53;;;;;;;11.98;7.45;;;;;;;18.68;76.95;100925.34;5055647;28;20031;-71
2021/07/04 00:55:21;;;;;;;11.63;7.00;;;;;;;18.66;77.04;100923.91;5040542;28;20086;-71
2021/07/04 00:57:52;;;;;;;13.07;7.30;;;;;;;18.62;77.17;100928.78;5053514;28;20031;-71
2021/07/04 01:00:23;;;;;;;11.82;7.60;;;;;;;18.54;77.44;100925.59;5039660;28;20041;-71
2021/07/04 01:02:49;;;;;;;12.70;7.82;;;;;;;18.49;77.86;100924.34;5045172;28;20047;-71
2021/07/04 01:05:19;;;;;;;16.10;7.75;;;;;;;18.46;77.88;100924.78;5039602;28;20486;-71
2021/07/04 01:07:46;;;;;;;13.15;8.07;;;;;;;18.45;77.95;100923.16;5051852;28;20614;-71
2021/07/04 01:10:15;;;;;;;12.23;7.80;;;;;;;18.46;77.90;100916.09;5032822;28;20076;-71
2021/07/04 01:12:44;;;;;;;12.30;7.93;;;;;;;18.48;77.63;100917.50;5040854;28;20120;-71
2021/07/04 01:15:10;;;;;;;12.82;7.15;;;;;;;18.48;77.43;100916.72;5024859;28;20269;-71
2021/07/04 01:17:37;;;;;;;11.05;7.63;;;;;;;18.49;77.42;100905.97;5039024;28;20059;-71
2021/07/04 01:20:07;;;;;;;12.93;8.85;;;;;;;18.46;77.40;100911.66;5031447;28;20645;-71
2021/07/04 01:22:34;;;;;;;13.30;8.00;;;;;;;18.43;77.60;100906.00;5029060;28;20036;-71
2021/07/04 01:25:00;;;;;;;14.10;8.65;;;;;;;18.39;77.85;100908.22;5016083;28;20040;-71
2021/07/04 01:27:26;;;;;;;13.18;8.88;;;;;;;18.41;77.90;100914.09;5047464;28;20044;-71
2021/07/04 01:29:52;;;;;;;12.73;8.65;;;;;;;18.43;77.56;100904.19;5040421;28;20485;-71
2021/07/04 01:32:18;;;;;;;13.52;8.27;;;;;;;18.46;77.36;100908.22;5027177;28;20048;-73
2021/07/04 01:34:44;;;;;;;14.00;9.55;;;;;;;18.46;77.05;100902.97;5030066;28;20028;-73
2021/07/04 01:37:10;;;;;;;12.38;8.52;;;;;;;18.46;77.17;100911.66;5030090;28;20029;-73
2021/07/04 01:39:36;;;;;;;13.20;8.25;;;;;;;18.49;77.03;100899.94;5035069;28;20107;-73
2021/07/04 01:42:03;;;;;;;13.63;8.63;;;;;;;18.49;76.60;100898.09;5038105;28;20115;-73
2021/07/04 01:44:30;;;;;;;12.48;8.05;;;;;;;18.51;76.37;100897.91;5033008;28;20040;-73
2021/07/04 01:46:55;;;;;;;12.48;7.30;;;;;;;18.51;76.41;100899.72;5023493;28;20029;-73
2021/07/04 01:49:26;;;;;;;13.60;7.53;;;;;;;18.49;76.34;100898.09;5034190;28;20588;-73
2021/07/04 01:51:53;;;;;;;12.15;7.70;;;;;;;18.48;76.56;100896.50;5041145;28;20554;-73
2021/07/04 01:54:27;;;;;;;12.98;8.38;;;;;;;18.45;76.65;100889.03;5040695;28;20025;-73
2021/07/04 01:56:53;;;;;;;19.10;8.85;;;;;;;18.39;77.26;100889.84;5044814;28;20397;-74
2021/07/04 01:59:19;;;;;;;14.02;9.95;;;;;;;18.33;77.40;100882.81;5053224;28;20036;-71
2021/07/04 02:01:53;;;;;;;14.52;9.27;;;;;;;18.28;77.66;100886.03;5034861;28;20033;-71
2021/07/04 02:04:20;;;;;;;12.10;8.73;;;;;;;18.27;77.94;100894.09;5020731;28;20032;-71
2021/07/04 02:06:53;;;;;;;13.05;8.02;;;;;;;18.26;78.02;100888.06;5053743;28;20051;-71
2021/07/04 02:09:20;;;;;;;12.93;8.35;;;;;;;18.27;77.72;100887.06;5019747;28;20401;-71
2021/07/04 02:11:46;;;;;;;13.60;8.88;;;;;;;18.30;77.68;100883.22;5036204;28;20160;-71
2021/07/04 02:14:12;;;;;;;14.77;8.82;;;;;;;18.27;77.82;100884.44;5018572;28;20597;-73
2021/07/04 02:16:54;;;;;;;13.88;9.32;;;;;;;18.20;78.40;100885.47;5037764;28;20477;-73
2021/07/04 02:19:43;;;;;;;14.27;9.27;;;;;;;18.18;78.42;100887.47;5035304;28;20036;-73
2021/07/04 02:22:37;;;;;;;13.00;8.77;;;;;;;18.15;78.76;100878.19;5035280;28;20094;-71
2021/07/04 02:25:09;;;;;;;15.43;9.10;;;;;;;18.15;78.96;100866.88;5033058;28;20033;-71
2021/07/04 02:27:36;;;;;;;13.50;9.55;;;;;;;18.11;79.03;100863.88;5045179;28;20020;-71
2021/07/04 02:30:12;;;;;;;15.63;8.68;;;;;;;18.05;79.27;100864.69;5023141;28;20036;-71
2021/07/04 02:32:39;;;;;;;14.90;8.75;;;;;;;18.01;79.34;100856.41;5031576;28;20094;-71
2021/07/04 02:35:06;;;;;;;14.00;8.68;;;;;;;18.00;79.41;100864.47;5031360;28;20034;-71
2021/07/04 02:37:33;;;;;;;16.00;8.07;;;;;;;18.02;79.38;100867.72;5034033;28;20025;-71
2021/07/04 02:40:09;;;;;;;14.13;9.18;;;;;;;18.06;79.04;100871.53;5014584;28;20040;-71
2021/07/04 02:42:37;;;;;;;13.50;8.90;;;;;;;18.08;78.86;100866.88;5032249;28;20028;-71
2021/07/04 02:45:05;;;;;;;14.15;8.63;;;;;;;18.11;78.82;100863.06;5019350;28;20036;-71
2021/07/04 02:47:31;;;;;;;16.17;9.38;;;;;;;18.12;78.50;100856.78;5016269;28;20629;-71
2021/07/04 02:49:58;;;;;;;14.50;9.43;;;;;;;18.12;78.51;100860.25;5041129;28;20378;-71
2021/07/04 02:52:25;;;;;;;14.48;8.88;;;;;;;18.11;78.77;100869.09;5035084;28;20129;-71
2021/07/04 02:54:51;;;;;;;16.73;10.38;;;;;;;18.11;78.85;100868.31;5031754;28;20028;-71
2021/07/04 02:57:26;;;;;;;13.00;8.65;;;;;;;18.12;78.77;100869.91;5036887;28;20521;-71
2021/07/04 02:59:55;;;;;;;12.90;9.38;;;;;;;18.12;78.67;100867.28;5033536;28;20447;-71
2021/07/04 03:02:21;;;;;;;14.23;10.15;;;;;;;18.11;78.59;100868.31;5034201;28;20021;-71
2021/07/04 03:04:53;;;;;;;19.15;9.85;;;;;;;18.12;78.78;100864.66;5021428;28;20528;-71
2021/07/04 03:07:21;;;;;;;16.67;10.32;;;;;;;18.08;79.37;100875.59;5032964;28;20025;-71
2021/07/04 03:09:47;;;;;;;15.38;10.43;;;;;;;18.05;79.84;100872.56;5029812;28;20033;-71
2021/07/04 03:12:17;;;;;;;14.82;9.82;;;;;;;18.02;79.83;100863.25;5036187;28;20396;-71
2021/07/04 03:14:44;;;;;;;16.90;9.60;;;;;;;18.03;79.77;100864.88;5038200;28;20036;-71
2021/07/04 03:17:12;;;;;;;17.30;10.70;;;;;;;17.98;79.76;100875.19;5034216;28;20033;-71
2021/07/04 03:19:38;;;;;;;13.80;9.95;;;;;;;17.98;79.98;100872.56;5032766;28;20083;-71
2021/07/04 03:22:05;;;;;;;16.45;11.13;;;;;;;17.99;79.83;100865.47;5031244;28;20068;-71
2021/07/04 03:24:33;;;;;;;17.50;10.52;;;;;;;17.99;79.73;100865.47;5033181;28;20557;-71
2021/07/04 03:27:00;;;;;;;14.68;9.68;;;;;;;17.96;79.80;100861.44;5021333;28;20094;-71
2021/07/04 03:29:27;;;;;;;15.40;10.57;;;;;;;17.91;80.30;100869.13;5030054;28;20686;-71
2021/07/04 03:31:52;;;;;;;16.88;9.55;;;;;;;17.90;80.39;100868.31;5042476;28;20036;-71
2021/07/04 03:34:19;;;;;;;13.98;9.75;;;;;;;17.89;80.29;100876.38;5035961;28;20102;-71
2021/07/04 03:36:47;;;;;;;14.88;9.27;;;;;;;17.88;80.52;100872.97;5018679;28;20219;-71
2021/07/04 03:39:13;;;;;;;17.02;10.40;;;;;;;17.87;81.15;100878.41;5051853;28;20055;-71
2021/07/04 03:41:41;;;;;;;16.92;10.95;;;;;;;17.86;81.02;100876.81;5032467;28;20087;-71
2021/07/04 03:44:08;;;;;;;14.95;10.98;;;;;;;17.87;80.96;100868.72;5037040;28;20040;-71
2021/07/04 03:46:34;;;;;;;14.75;10.00;;;;;;;17.88;80.52;100867.72;5030061;28;20673;-71
2021/07/04 03:49:00;;;;;;;17.83;11.27;;;;;;;17.90;80.21;100863.06;5032106;28;20033;-71
2021/07/04 03:51:33;;;;;;;16.65;10.38;;;;;;;17.88;80.41;100867.72;5035162;28;20035;-71
2021/07/04 03:54:02;;;;;;;20.50;10.88;;;;;;;17.87;80.63;100862.66;5038000;28;20448;-71
2021/07/04 03:56:28;;;;;;;13.95;10.27;;;;;;;17.88;80.44;100864.28;5031435;28;20052;-71
2021/07/04 03:58:58;;;;;;;16.67;11.13;;;;;;;17.90;80.32;100865.69;5031859;28;20029;-71
2021/07/04 04:01:24;;;;;;;22.58;11.75;;;;;;;17.91;80.18;100869.13;5037243;28;20063;-71
2021/07/04 04:03:52;;;;;;;15.65;10.35;;;;;;;17.93;79.98;100866.28;5031827;28;20050;-71
2021/07/04 04:06:19;;;;;;;27.67;12.18;;;;;;;17.90;80.44;100873.56;5047969;28;20075;-71
2021/07/04 04:08:49;;;;;;;16.65;10.68;;;;;;;17.91;80.82;100877.00;5035055;28;20124;-71
2021/07/04 04:11:23;;;;;;;17.83;11.32;;;;;;;17.90;80.96;100863.06;5055414;28;20500;-71
2021/07/04 04:13:58;;;;;;;17.08;10.95;;;;;;;17.89;81.05;100863.28;5038509;28;20091;-71
2021/07/04 04:16:24;;;;;;;17.38;11.25;;;;;;;17.90;80.93;100867.53;5039459;28;20032;-71
2021/07/04 04:18:50;;;;;;;19.02;11.75;;;;;;;17.90;80.87;100878.00;5012670;28;20091;-71
2021/07/04 04:21:17;;;;;;;16.27;10.73;;;;;;;17.87;81.06;100873.16;5037494;28;20035;-71
2021/07/04 04:23:51;;;;;;;15.20;10.93;;;;;;;17.87;81.29;100879.22;5035111;28;20028;-71
2021/07/04 04:26:21;;;;;;;22.58;14.27;;;;;;;17.93;80.71;100874.97;5039261;28;20025;-71
2021/07/04 04:28:48;;;;;;;21.38;12.80;;;;;;;17.89;80.81;100871.13;5047992;28;20418;-71
2021/07/04 04:31:14;;;;;;;19.38;13.75;;;;;;;17.89;81.05;100869.34;5047267;28;20040;-71
2021/07/04 04:33:40;;;;;;;16.80;11.60;;;;;;;17.88;81.27;100875.59;5031636;28;20032;-71
2021/07/04 04:36:05;;;;;;;16.98;11.63;;;;;;;17.92;81.10;100869.94;5048691;28;20040;-72
2021/07/04 04:38:31;;;;;;;16.67;11.82;;;;;;;17.95;81.02;100866.91;5047217;28;20516;-71
2021/07/04 04:40:56;;;;;;;17.23;11.52;;;;;;;17.97;81.01;100863.09;5033071;28;20028;-71
2021/07/04 04:43:23;;;;;;;16.02;11.13;;;;;;;17.99;81.09;100868.94;5047592;28;20029;-71
2021/07/04 04:45:48;;;;;;;15.02;10.05;;;;;;;18.00;81.04;100864.47;5045885;28;20029;-71
2021/07/04 04:48:14;;;;;;;19.40;10.65;;;;;;;18.01;80.88;100866.09;5032826;28;20036;-71
2021/07/04 04:50:39;;;;;;;16.17;9.27;;;;;;;18.03;81.11;100875.38;5043161;28;20036;-71
2021/07/04 04:53:05;;;;;;;13.90;9.90;;;;;;;18.06;80.43;100866.28;5046968;28;20437;-71
2021/07/04 04:55:30;;;;;;;14.90;10.93;;;;;;;18.08;80.26;100869.50;5035374;28;20029;-71
2021/07/04 04:57:56;;;;;;;14.88;9.45;;;;;;;18.13;79.83;100868.91;5033472;28;20377;-71
2021/07/04 05:00:21;;;;;;;15.38;9.93;;;;;;;18.16;79.75;100863.25;5046470;28;20102;-71
2021/07/04 05:02:48;;;;;;;13.57;10.07;;;;;;;18.24;79.47;100868.28;5042946;28;20032;-71
2021/07/04 05:05:14;;;;;;;17.38;10.43;;;;;;;18.31;79.29;100868.25;5043392;28;20021;-71
2021/07/04 05:07:39;;;;;;;15.82;10.77;;;;;;;18.35;78.99;100864.25;5048601;28;20025;-71
2021/07/04 05:10:05;;;;;;;18.13;11.55;;;;;;;18.31;79.21;100869.09;5018582;28;20421;-71
2021/07/04 05:12:31;;;;;;;17.73;11.52;;;;;;;18.28;79.40;100867.66;5044758;28;20098;-71
2021/07/04 05:14:57;;;;;;;17.35;11.13;;;;;;;18.31;79.41;100868.25;5034475;28;20517;-71
2021/07/04 05:17:22;;;;;;;13.75;9.80;;;;;;;18.33;79.00;100869.69;5033565;28;20024;-71
2021/07/04 05:19:48;;;;;;;15.27;9.55;;;;;;;18.35;78.95;100864.25;5035733;28;20539;-71
2021/07/04 05:22:14;;;;;;;15.90;10.38;;;;;;;18.37;79.00;100870.88;5050330;28;20119;-71
2021/07/04 05:24:39;;;;;;;18.55;11.40;;;;;;;18.41;78.86;100866.81;5036097;28;20072;-72
2021/07/04 05:27:05;;;;;;;15.70;11.23;;;;;;;18.45;79.17;100861.97;5037024;28;20033;-71
2021/07/04 05:29:30;;;;;;;16.65;10.68;;;;;;;18.48;79.40;100858.94;5050248;28;20480;-71
2021/07/04 05:31:56;;;;;;;15.57;10.88;;;;;;;18.47;79.74;100854.69;5016061;28;20029;-71
2021/07/04 05:34:22;;;;;;;16.02;10.20;;;;;;;18.49;79.53;100857.91;5049844;28;20036;-71
2021/07/04 05:36:49;;;;;;;14.95;10.35;;;;;;;18.55;79.68;100849.22;5047283;28;20361;-71
2021/07/04 05:39:15;;;;;;;17.60;10.70;;;;;;;18.62;79.16;100849.19;5037151;28;20121;-71
2021/07/04 05:41:41;;;;;;;16.33;10.25;;;;;;;18.63;79.25;100845.56;5055728;28;20500;-71
2021/07/04 05:44:06;;;;;;;17.02;11.27;;;;;;;18.92;78.48;100846.88;5023195;28;20033;-71
2021/07/04 05:46:36;;;;;;;13.77;9.95;;;;;;;19.09;77.78;100841.94;5051315;28;20543;-71
2021/07/04 05:49:02;;;;;;;16.15;11.20;;;;;;;19.13;77.48;100844.94;5037548;28;20047;-71
2021/07/04 05:51:28;;;;;;;21.17;12.52;;;;;;;19.02;77.73;100838.53;5032123;28;20025;-71
2021/07/04 05:53:54;;;;;;;14.50;10.07;;;;;;;18.99;77.72;100834.50;5052587;28;20504;-71
2021/07/04 05:56:19;;;;;;;17.70;11.40;;;;;;;19.03;77.52;100829.66;5056352;28;20281;-70
2021/07/04 05:58:45;;;;;;;18.50;12.27;;;;;;;19.12;77.30;100830.19;5054248;28;20459;-71
2021/07/04 06:01:10;;;;;;;16.63;11.40;;;;;;;19.47;76.33;100825.28;5054444;28;20030;-71
2021/07/04 06:03:36;;;;;;;16.77;10.77;;;;;;;20.05;74.73;100826.03;5053468;28;20412;-71
2021/07/04 06:06:02;;;;;;;22.05;12.30;;;;;;;20.06;74.41;100830.28;5056555;28;20496;-71
2021/07/04 06:08:27;;;;;;;23.27;12.05;;;;;;;20.46;72.57;100825.38;5039491;28;20048;-71
2021/07/04 06:10:53;;;;;;;14.70;9.43;;;;;;;20.49;72.67;100829.41;5050864;28;20068;-71
2021/07/04 06:13:19;;;;;;;20.00;12.77;;;;;;;20.43;72.63;100826.63;5047920;28;20036;-71
2021/07/04 06:15:45;;;;;;;14.48;9.02;;;;;;;20.47;72.37;100824.34;5036399;28;20039;-71
2021/07/04 06:18:11;;;;;;;13.32;9.48;;;;;;;20.50;72.00;100821.28;5034588;28;20477;-71
2021/07/04 06:20:37;;;;;;;14.27;9.75;;;;;;;20.78;71.43;100826.03;5048379;28;20074;-71
2021/07/04 06:23:02;;;;;;;19.92;12.50;;;;;;;21.01;70.57;100827.13;5053127;28;20504;-71
2021/07/04 06:25:28;;;;;;;13.15;9.68;;;;;;;21.57;68.64;100823.28;5046652;28;20024;-72
2021/07/04 06:27:53;;;;;;;15.77;10.00;;;;;;;22.02;67.86;100818.44;5046751;28;20559;-71
2021/07/04 06:30:19;;;;;;;12.82;8.88;;;;;;;22.66;66.27;100823.69;5033942;28;20033;-72
2021/07/04 06:32:45;;;;;;;15.85;10.20;;;;;;;22.68;65.81;100829.56;5023834;28;20091;-72
2021/07/04 06:35:12;;;;;;;18.42;11.45;;;;;;;22.23;67.58;100822.31;5049354;28;20071;-72
2021/07/04 06:37:38;;;;;;;16.50;9.73;;;;;;;21.93;67.43;100823.28;5046971;28;20083;-72
2021/07/04 06:40:06;;;;;;;13.75;8.95;;;;;;;21.80;68.16;100821.66;5050017;28;20037;-72
2021/07/04 06:42:32;;;;;;;18.48;11.30;;;;;;;22.00;67.97;100816.03;5056383;28;20037;-72
2021/07/04 06:44:57;;;;;;;14.95;9.95;;;;;;;22.28;66.41;100810.06;5051456;28;20040;-72
2021/07/04 06:47:23;;;;;;;20.70;11.27;;;;;;;22.55;66.17;100812.94;5050204;28;20025;-72
2021/07/04 06:49:49;;;;;;;15.52;9.52;;;;;;;22.66;65.77;100815.78;5052833;28;20037;-71
2021/07/04 06:52:14;;;;;;;14.45;10.45;;;;;;;22.62;nan;100818.09;5038548;28;20503;-72
2021/07/04 06:54:40;;;;;;;15.45;10.45;;;;;;;22.56;65.37;100811.09;5052319;28;20043;-72
2021/07/04 06:59:50;;;;;;;14.40;10.30;;;;;;;23.17;63.02;100802.66;5046219;28;20075;-71
2021/07/04 07:02:15;;;;;;;21.17;14.20;;;;;;;23.60;61.67;100806.50;5047073;28;20029;-72
2021/07/04 07:04:41;;;;;;;18.55;11.18;;;;;;;23.61;61.28;100805.47;5016410;28;20036;-72
2021/07/04 07:07:06;;;;;;;16.35;11.55;;;;;;;24.23;60.24;100805.25;5043745;28;20020;-72
2021/07/04 07:09:32;;;;;;;13.45;9.45;;;;;;;24.69;58.42;100802.34;5052710;28;20481;-72
2021/07/04 07:11:57;;;;;;;14.02;9.73;;;;;;;24.19;59.92;100801.50;5045805;28;20044;-72
2021/07/04 07:14:23;;;;;;;16.13;9.60;;;;;;;23.66;61.22;100795.78;5058746;28;20032;-72
2021/07/04 07:16:49;;;;;;;14.52;10.52;;;;;;;23.28;62.05;100801.78;5041097;28;20247;-72
2021/07/04 07:19:14;;;;;;;12.15;9.15;;;;;;;23.40;62.13;100797.25;5038491;28;20021;-73
2021/07/04 07:21:41;;;;;;;14.93;11.35;;;;;;;23.89;60.86;100800.06;5043490;28;20123;-72
2021/07/04 07:24:08;;;;;;;15.77;11.65;;;;;;;24.19;59.92;100795.44;5052574;28;20029;-71
2021/07/04 07:26:34;;;;;;;14.30;9.23;;;;;;;24.76;57.86;100792.34;5027121;28;20032;-72
2021/07/04 07:29:00;;;;;;;17.90;10.13;;;;;;;25.51;55.39;100786.34;5045792;28;20029;-72
2021/07/04 07:31:26;;;;;;;11.50;8.20;;;;;;;26.01;54.05;100790.31;5050826;28;20500;-72
2021/07/04 07:33:51;;;;;;;10.73;7.70;;;;;;;25.87;54.08;100779.34;5037185;28;20052;-73
2021/07/04 07:36:18;;;;;;;12.00;8.38;;;;;;;25.60;55.12;100784.81;5030805;28;20051;-73
2021/07/04 07:38:43;;;;;;;11.00;8.10;;;;;;;25.58;55.24;100777.09;5049552;28;20509;-72
2021/07/04 07:41:09;;;;;;;9.30;7.28;;;;;;;25.16;55.78;100779.69;5053140;28;20115;-72
2021/07/04 07:43:34;;;;;;;10.98;7.22;;;;;;;25.34;55.22;100783.84;5034391;28;20025;-71
2021/07/04 07:46:00;;;;;;;12.10;8.18;;;;;;;25.80;52.69;100773.47;5031200;28;20517;-72
2021/07/04 07:48:26;;;;;;;9.65;7.15;;;;;;;26.09;51.87;100768.59;5051769;28;20116;-72
2021/07/04 07:51:06;;;;;;;10.48;8.82;;;;;;;25.79;52.21;100775.34;5034265;28;20036;-73
2021/07/04 07:53:32;;;;;;;12.52;7.53;;;;;;;26.35;52.80;100769.47;5052650;28;20025;-73
2021/07/04 07:55:57;;;;;;;10.80;7.85;;;;;;;26.72;51.83;100760.50;5057557;28;20502;-72
2021/07/04 07:58:25;;;;;;;15.85;8.38;;;;;;;26.73;51.55;100761.28;5025138;28;20214;-72
2021/07/04 08:00:56;;;;;;;13.90;8.38;;;;;;;27.03;50.33;100754.38;5043218;28;20053;-73
2021/07/04 08:03:21;;;;;;;10.63;7.78;;;;;;;27.59;48.46;100756.97;5037586;28;20083;-72
2021/07/04 08:05:47;;;;;;;11.55;7.88;;;;;;;27.80;48.31;100760.38;5055246;28;20568;-73
2021/07/04 08:08:12;;;;;;;10.77;8.13;;;;;;;28.17;47.61;100764.50;5057801;28;20067;-73
2021/07/04 08:10:38;;;;;;;10.55;6.85;;;;;;;27.93;47.89;100761.69;5045792;28;20099;-73
2021/07/04 08:13:04;;;;;;;8.60;6.95;;;;;;;27.08;49.78;100765.81;5036953;28;20036;-73
2021/07/04 08:15:30;;;;;;;8.68;5.78;;;;;;;26.45;50.94;100768.69;5040528;28;20124;-73
2021/07/04 08:17:58;;;;;;;8.82;6.60;;;;;;;26.18;53.28;100766.22;5030765;28;20029;-73
2021/07/04 08:20:24;;;;;;;6.95;5.88;;;;;;;25.94;53.90;100764.03;5037894;28;20029;-72
2021/07/04 08:22:50;;;;;;;9.95;5.82;;;;;;;25.74;54.30;100767.34;5067087;28;20036;-73
2021/07/04 08:25:17;;;;;;;8.82;5.25;;;;;;;25.79;53.98;100758.63;5049938;28;20060;-73
2021/07/04 08:27:43;;;;;;;6.15;4.30;;;;;;;25.83;53.82;100747.22;5039772;28;20120;-73
2021/07/04 08:30:11;;;;;;;7.60;5.10;;;;;;;25.76;53.29;100749.28;5049590;28;20123;-73
2021/07/04 08:32:36;;;;;;;6.07;4.53;;;;;;;25.54;53.12;100738.84;5035013;28;20058;-72
2021/07/04 08:35:04;;;;;;;8.50;6.20;;;;;;;25.61;51.88;100736.75;5049824;28;20406;-73
2021/07/04 08:37:29;;;;;;;7.97;5.60;;;;;;;26.15;51.03;100727.69;5033604;28;20060;-73
2021/07/04 08:39:55;;;;;;;6.72;5.63;;;;;;;26.79;49.60;100731.78;5047797;28;20035;-73
2021/07/04 08:42:20;;;;;;;6.78;5.15;;;;;;;27.12;48.46;100728.84;5040648;28;20040;-74
2021/07/04 08:44:51;;;;;;;6.78;5.43;;;;;;;27.03;48.73;100723.28;5045855;28;20037;-74
2021/07/04 08:47:18;;;;;;;7.93;6.03;;;;;;;26.61;49.82;100727.78;5037632;28;20117;-74
2021/07/04 08:49:46;;;;;;;8.57;6.82;;;;;;;25.96;51.21;100731.91;5047223;28;20072;-74
2021/07/04 08:52:12;;;;;;;8.35;5.60;;;;;;;25.60;52.74;100731.72;5049254;28;20025;-74
2021/07/04 08:54:38;;;;;;;7.93;5.15;;;;;;;25.56;53.15;100730.59;5011589;28;20579;-74
2021/07/04 08:57:08;;;;;;;8.68;5.70;;;;;;;25.82;52.74;100727.03;5038722;28;20025;-75
2021/07/04 08:59:41;;;;;;;8.55;6.88;;;;;;;25.52;53.51;100730.31;5035570;28;20033;-75
2021/07/04 09:02:11;;;;;;;8.65;5.78;;;;;;;25.49;53.08;100730.06;5040921;28;20037;-74
2021/07/04 09:04:57;;;;;;;12.15;6.25;;;;;;;25.34;53.16;100731.56;5051991;28;20033;-74
2021/07/04 09:07:27;;;;;;;8.18;6.25;;;;;;;25.32;54.23;100723.06;5053830;28;20035;-75
2021/07/04 09:09:59;;;;;;;7.78;5.53;;;;;;;25.39;54.54;100728.13;5035327;28;20037;-75
2021/07/04 09:12:54;;;;;;;9.43;5.57;;;;;;;25.34;54.25;100720.16;5011382;28;20481;-74
2021/07/04 09:15:28;;;;;;;9.70;6.22;;;;;;;25.29;54.42;100717.47;4997459;28;20578;-74
2021/07/04 09:17:57;;;;;;;7.68;5.63;;;;;;;25.23;55.33;100709.47;5028199;28;20056;-75
2021/07/04 09:20:29;;;;;;;10.52;7.38;;;;;;;25.12;56.03;100709.63;5044366;28;20039;-75
2021/07/04 09:22:56;;;;;;;9.95;7.38;;;;;;;24.81;57.33;100718.16;5024898;28;20037;-74
2021/07/04 09:25:35;;;;;;;10.75;7.65;;;;;;;24.72;56.21;100713.59;5037907;28;20028;-74
2021/07/04 09:28:18;;;;;;;12.60;8.55;;;;;;;24.48;57.47;100708.56;5036354;28;20098;-75
2021/07/04 09:30:54;;;;;;;9.88;7.60;;;;;;;24.15;58.17;100710.38;5024077;28;20135;-75
2021/07/04 09:33:29;;;;;;;12.13;8.73;;;;;;;24.10;58.53;100710.31;5044522;28;20032;-75
2021/07/04 09:36:04;;;;;;;12.10;8.07;;;;;;;23.83;58.33;100705.75;5026581;28;20065;-74
2021/07/04 09:38:39;;;;;;;10.45;7.47;;;;;;;23.63;59.61;100697.53;5044312;28;20043;-74
2021/07/04 09:41:07;;;;;;;9.25;7.07;;;;;;;23.66;59.27;100694.41;5020261;28;20037;-75
2021/07/04 09:43:37;;;;;;;10.40;7.40;;;;;;;23.64;59.16;100688.53;5034681;28;20029;-74
2021/07/04 09:46:06;;;;;;;8.88;6.55;;;;;;;23.61;59.22;100691.69;5037395;28;20039;-75
2021/07/04 09:48:41;;;;;;;9.18;6.10;;;;;;;23.46;58.92;100682.50;5039624;28;20370;-74
2021/07/04 09:51:19;;;;;;;10.35;5.57;;;;;;;23.40;59.88;100675.56;5026054;28;20036;-74
2021/07/04 09:53:49;;;;;;;8.13;5.40;;;;;;;23.54;60.20;100675.19;5026032;28;20413;-74
2021/07/04 09:56:16;;;;;;;9.23;6.57;;;;;;;24.41;57.77;100670.84;5040825;28;20044;-74
2021/07/04 09:58:44;;;;;;;5.78;5.18;;;;;;;25.21;55.11;100661.16;5014931;28;20068;-75
2021/07/04 10:01:10;;;;;;;10.95;7.22;;;;;;;25.78;52.03;100658.75;5022629;28;20079;-75
2021/07/04 10:03:41;;;;;;;8.98;6.78;;;;;;;26.02;51.59;100656.47;5011398;28;20127;-74
2021/07/04 10:06:10;;;;;;;9.10;6.53;;;;;;;26.49;51.91;100647.47;5044885;28;20370;-76
2021/07/04 10:08:37;;;;;;;9.50;6.35;;;;;;;26.58;50.60;100653.06;5045832;28;20033;-75
2021/07/04 10:11:05;;;;;;;7.82;5.63;;;;;;;26.63;49.05;100652.28;5006697;28;20032;-73
2021/07/04 10:13:32;;;;;;;7.72;5.88;;;;;;;26.76;51.13;100643.78;5045740;28;20024;-75
2021/07/04 10:15:59;;;;;;;11.27;6.38;;;;;;;26.91;48.84;100642.94;5043434;28;20276;-74
2021/07/04 10:18:24;;;;;;;8.23;6.88;;;;;;;26.64;49.43;100638.75;5043038;28;20056;-75
2021/07/04 10:20:51;;;;;;;8.52;6.05;;;;;;;26.58;49.63;100629.94;5033460;28;20437;-75
2021/07/04 10:23:19;;;;;;;7.35;5.90;;;;;;;26.51;49.74;100628.63;5010748;28;20033;-75
2021/07/04 10:25:46;;;;;;;6.03;5.20;;;;;;;26.81;49.89;100633.13;5026339;28;20033;-75
2021/07/04 10:28:14;;;;;;;8.35;5.47;;;;;;;26.81;49.47;100633.13;5032096;28;20476;-77
2021/07/04 10:30:41;;;;;;;8.15;5.22;;;;;;;26.55;49.17;100630.47;5045554;28;20028;-74
2021/07/04 10:33:06;;;;;;;8.93;5.00;;;;;;;26.54;50.07;100641.34;5031295;28;20151;-75
2021/07/04 10:35:33;;;;;;;7.13;5.47;;;;;;;26.46;50.34;100633.94;5044194;28;20120;-74
2021/07/04 10:38:13;;;;;;;8.45;5.57;;;;;;;26.28;50.95;100621.97;5025331;28;20083;-74
2021/07/04 10:40:39;;;;;;;5.70;5.00;;;;;;;26.10;51.36;100624.06;5041394;28;20033;-74
2021/07/04 10:43:04;;;;;;;5.70;5.07;;;;;;;25.95;51.79;100622.19;5047330;28;20040;-74
2021/07/04 10:45:37;;;;;;;5.90;3.72;;;;;;;25.92;52.44;100612.09;5033510;28;20040;-74
2021/07/04 10:48:27;;;;;;;5.78;5.00;;;;;;;25.79;50.64;100612.59;5052022;28;20032;-74
2021/07/04 10:51:15;;;;;;;7.50;5.18;;;;;;;25.88;52.09;100608.34;5038025;28;20033;-74
2021/07/04 10:53:54;;;;;;;5.72;4.30;;;;;;;25.87;51.01;100604.09;5033359;28;20029;-73
2021/07/04 10:56:39;;;;;;;5.45;4.35;;;;;;;25.97;48.72;100606.00;5034463;28;20029;-75
2021/07/04 10:59:19;;;;;;;8.18;4.30;;;;;;;26.33;46.93;100598.03;5049844;28;20484;-73
2021/07/04 11:01:58;;;;;;;7.88;5.20;;;;;;;26.49;47.77;100596.97;5043701;28;20634;-74
2021/07/04 11:04:32;;;;;;;6.55;4.65;;;;;;;26.79;47.91;100598.03;5053537;28;20028;-74
2021/07/04 11:07:01;;;;;;;5.00;4.43;;;;;;;26.79;47.63;100587.41;5031162;28;20045;-74
2021/07/04 11:10:00;;;;;;;6.20;5.07;;;;;;;26.65;48.19;100581.03;5047596;28;20041;-74
2021/07/04 11:12:26;;;;;;;6.80;5.35;;;;;;;26.64;47.90;100574.94;5044289;28;20688;-74
2021/07/04 11:15:10;;;;;;;6.88;4.60;;;;;;;26.45;50.26;100566.69;5031091;28;20028;-74
2021/07/04 11:18:04;;;;;;;6.15;4.93;;;;;;;26.75;48.30;100554.44;5048597;28;20029;-74
2021/07/04 11:20:40;;;;;;;7.00;4.88;;;;;;;26.98;46.26;100553.81;5030774;28;20039;-73
2021/07/04 11:23:16;;;;;;;6.20;4.30;;;;;;;26.79;48.53;100558.16;5028806;28;20036;-74
2021/07/04 11:25:44;;;;;;;7.40;5.03;;;;;;;26.73;46.84;100556.53;5045342;28;20517;-73